Time;durP1;ratioP1;P1;durP2;ratioP2;P2;SDS_P1;SDS_P2;PMS_P1;PMS_P2;Temp;Humidity;BMP_temperature;BMP_pressure;BME280_temperature;BME280_humidity;BME280_pressure;Samples;Min_cycle;Max_cycle;Signal;HPM_P1;HPM_P2
2021/10/29 00:01:30;;;;;;;73.50;47.20;;;;;;;7.95;78.06;100773.52;113145;1194;139754;-68
2021/10/29 00:04:17;;;;;;;74.20;45.50;;;;;;;7.90;78.24;100769.75;114350;1193;96203;-68
2021/10/29 00:07:05;;;;;;;69.70;43.50;;;;;;;7.86;78.22;100765.83;113176;1193;138665;-68
2021/10/29 00:09:52;;;;;;;67.60;45.00;;;;;;;7.83;78.40;100759.80;113184;1193;112225;-69
2021/10/29 00:12:39;;;;;;;72.90;45.60;;;;;;;7.81;78.46;100755.67;114717;1193;108578;-67
2021/10/29 00:15:27;;;;;;;67.10;43.60;;;;;;;7.78;78.49;100763.16;114545;1193;139594;-67
2021/10/29 00:18:14;;;;;;;71.70;45.80;;;;;;;7.79;78.39;100756.92;114745;1193;96679;-67
2021/10/29 00:21:00;;;;;;;70.80;45.90;;;;;;;7.77;78.35;100753.48;114594;1193;138112;-69
2021/10/29 00:23:47;;;;;;;65.10;43.70;;;;;;;7.75;78.31;100748.50;114694;1193;111885;-69
2021/10/29 00:26:33;;;;;;;65.80;45.20;;;;;;;7.71;78.11;100748.17;114614;1193;138516;-67
2021/10/29 00:29:21;;;;;;;71.80;48.00;;;;;;;7.69;78.45;100746.11;114717;1193;108613;-69
2021/10/29 00:32:08;;;;;;;;;;;;;;;7.66;78.29;100745.30;114594;1193;138182;-67
2021/10/29 00:34:54;;;;;;;68.90;45.80;;;;;;;7.63;78.50;100741.70;114717;1193;95983;-67
2021/10/29 00:37:41;;;;;;;76.70;47.40;;;;;;;7.61;78.39;100742.42;114614;1193;141296;-67
2021/10/29 00:40:28;;;;;;;74.60;46.90;;;;;;;7.57;78.44;100742.48;114772;1193;108569;-67
2021/10/29 00:43:15;;;;;;;65.50;42.90;;;;;;;7.52;78.55;100737.15;114625;1193;139258;-67
2021/10/29 00:46:02;;;;;;;64.80;44.00;;;;;;;7.50;78.53;100737.88;114636;1186;96100;-67
2021/10/29 00:48:49;;;;;;;72.90;46.00;;;;;;;7.49;78.54;100737.20;114674;1193;95935;-67
2021/10/29 00:51:36;;;;;;;68.90;46.30;;;;;;;7.47;78.46;100733.92;114596;1193;138399;-67
2021/10/29 00:54:23;;;;;;;70.70;44.30;;;;;;;7.46;78.36;100732.04;114586;1195;108474;-67
2021/10/29 00:57:14;;;;;;;66.30;43.90;;;;;;;7.47;78.41;100729.96;114615;1193;137992;-67
2021/10/29 01:00:03;;;;;;;70.30;44.20;;;;;;;7.46;78.47;100736.89;114680;1193;95854;-67
2021/10/29 01:02:51;;;;;;;69.40;44.00;;;;;;;7.44;78.40;100727.91;114577;1193;137891;-67
2021/10/29 01:05:38;;;;;;;;;;;;;;;7.46;78.40;100728.92;114730;1193;112047;-67
2021/10/29 01:08:25;;;;;;;70.50;46.10;;;;;;;7.48;78.37;100727.35;114606;1193;123783;-67
2021/10/29 01:11:14;;;;;;;74.10;46.00;;;;;;;7.46;78.26;100729.79;114707;1193;108932;-67
2021/10/29 01:14:01;;;;;;;71.40;43.90;;;;;;;7.47;78.14;100722.01;114592;1193;139226;-67
2021/10/29 01:16:47;;;;;;;69.10;45.90;;;;;;;7.48;78.18;100716.10;114690;1193;96132;-68
2021/10/29 01:19:38;;;;;;;70.00;45.80;;;;;;;7.48;78.14;100718.18;114626;1193;138174;-67
2021/10/29 01:22:26;;;;;;;71.10;42.10;;;;;;;7.47;77.84;100716.46;114760;1193;108447;-67
2021/10/29 01:25:14;;;;;;;73.10;44.70;;;;;;;7.48;77.81;100714.89;114509;1193;138410;-67
2021/10/29 01:28:01;;;;;;;69.50;44.40;;;;;;;7.49;77.74;100711.77;114725;1193;99786;-67
2021/10/29 01:30:47;;;;;;;67.20;43.10;;;;;;;7.48;77.79;100709.00;114736;1193;95731;-67
2021/10/29 01:33:34;;;;;;;67.50;43.50;;;;;;;7.46;77.58;100707.64;114615;1193;138666;-67
2021/10/29 01:36:21;;;;;;;70.60;46.40;;;;;;;7.44;77.82;100699.55;114710;1193;107641;-67
2021/10/29 01:39:07;;;;;;;70.00;44.90;;;;;;;7.43;77.77;100695.07;114577;1193;137734;-67
2021/10/29 01:41:54;;;;;;;69.40;45.10;;;;;;;7.41;77.85;100693.88;114710;1193;95785;-68
2021/10/29 01:44:41;;;;;;;70.20;45.00;;;;;;;7.41;77.76;100693.71;114623;1193;138091;-67
2021/10/29 01:47:29;;;;;;;73.40;47.00;;;;;;;7.40;77.89;100691.30;113529;1194;112254;-67
2021/10/29 01:50:16;;;;;;;70.20;45.80;;;;;;;7.39;77.92;100692.88;114570;1193;139098;-67
2021/10/29 01:53:02;;;;;;;68.50;44.50;;;;;;;7.38;77.87;100692.71;114718;1193;108533;-68
2021/10/29 01:55:49;;;;;;;72.50;46.40;;;;;;;7.39;77.81;100685.77;114646;1193;138665;-68
2021/10/29 01:58:36;;;;;;;70.30;45.00;;;;;;;7.39;77.75;100685.77;114822;1193;95841;-68
2021/10/29 02:01:23;;;;;;;66.40;43.10;;;;;;;7.39;77.58;100684.22;114663;1193;138157;-67
2021/10/29 02:04:11;;;;;;;69.40;44.20;;;;;;;7.40;77.67;100679.53;114753;1193;108617;-68
2021/10/29 02:06:58;;;;;;;70.50;45.20;;;;;;;7.40;77.61;100675.38;114733;1193;107564;-68
2021/10/29 02:09:44;;;;;;;64.90;43.00;;;;;;;7.40;77.50;100676.08;114623;1193;138705;-67
2021/10/29 02:12:31;;;;;;;72.70;46.50;;;;;;;7.41;77.47;100672.42;113506;1193;97545;-67
2021/10/29 02:15:19;;;;;;;70.90;44.10;;;;;;;7.41;77.32;100669.14;113290;1193;138441;-68
2021/10/29 02:18:06;;;;;;;64.10;42.80;;;;;;;7.40;77.42;100667.60;113354;1193;108716;-67
2021/10/29 02:20:53;;;;;;;65.60;42.60;;;;;;;7.39;77.35;100666.92;114548;1193;138458;-69
2021/10/29 02:23:40;;;;;;;65.30;44.70;;;;;;;7.38;77.24;100669.88;114230;1193;98233;-68
2021/10/29 02:26:28;;;;;;;69.10;43.70;;;;;;;7.36;77.21;100665.04;113213;1193;136674;-67
2021/10/29 02:29:15;;;;;;;64.40;43.10;;;;;;;7.33;77.21;100670.42;113334;1193;109981;-67
2021/10/29 02:32:03;;;;;;;64.70;44.00;;;;;;;7.31;77.21;100665.98;114631;1193;138706;-69
2021/10/29 02:34:49;;;;;;;;;;;;;;;7.27;77.12;100663.41;114755;1193;108646;-68
2021/10/29 02:37:36;;;;;;;67.00;42.70;;;;;;;7.23;76.97;100667.45;114634;1193;125148;-69
2021/10/29 02:40:23;;;;;;;66.10;44.20;;;;;;;7.21;77.09;100664.19;114791;1193;95850;-68
2021/10/29 02:43:10;;;;;;;66.20;44.10;;;;;;;7.19;76.96;100666.98;114804;1187;112872;-68
2021/10/29 02:45:57;;;;;;;67.10;41.90;;;;;;;7.16;77.18;100659.57;114647;1193;138620;-69
2021/10/29 02:48:44;;;;;;;65.10;43.40;;;;;;;7.13;77.09;100667.02;114819;1193;108209;-68
2021/10/29 02:51:31;;;;;;;70.00;44.70;;;;;;;7.13;76.99;100665.30;114685;1193;138067;-68
2021/10/29 02:54:17;;;;;;;63.50;43.50;;;;;;;7.11;76.81;100656.17;114811;1193;95719;-68
2021/10/29 02:57:04;;;;;;;58.90;40.50;;;;;;;7.09;76.85;100652.90;114618;1193;138285;-68
2021/10/29 02:59:50;;;;;;;67.50;43.30;;;;;;;7.09;76.80;100652.39;114789;1193;108628;-68
2021/10/29 03:02:38;;;;;;;67.80;43.10;;;;;;;7.07;76.76;100655.71;114556;1193;137960;-65
2021/10/29 03:05:25;;;;;;;67.10;40.70;;;;;;;7.05;76.78;100653.14;114801;1193;95787;-67
2021/10/29 03:08:12;;;;;;;66.80;43.10;;;;;;;7.04;76.79;100652.80;114695;1193;138531;-67
2021/10/29 03:10:58;;;;;;;64.70;42.40;;;;;;;7.04;76.51;100653.66;114788;1193;112204;-67
2021/10/29 03:13:46;;;;;;;59.80;40.30;;;;;;;7.02;76.59;100662.17;114680;1193;138249;-67
2021/10/29 03:16:32;;;;;;;57.80;40.50;;;;;;;7.01;76.64;100653.54;114182;1193;106245;-69
2021/10/29 03:19:20;;;;;;;63.70;41.80;;;;;;;7.02;76.37;100647.98;114809;1193;95881;-70
2021/10/29 03:22:07;;;;;;;59.60;39.60;;;;;;;7.01;76.33;100649.91;114568;1193;138380;-68
2021/10/29 03:24:55;;;;;;;56.50;39.10;;;;;;;7.01;76.31;100646.44;114722;1193;112231;-69
2021/10/29 03:27:41;;;;;;;64.10;41.90;;;;;;;7.03;76.12;100649.54;114647;1193;138582;-67
2021/10/29 03:30:28;;;;;;;59.20;39.00;;;;;;;7.02;76.08;100647.98;114754;1193;108563;-67
2021/10/29 03:33:15;;;;;;;60.00;38.40;;;;;;;7.01;75.99;100649.73;114307;1193;138065;-67
2021/10/29 03:36:02;;;;;;;63.80;40.10;;;;;;;7.03;75.87;100632.75;113359;1193;97571;-66
2021/10/29 03:38:57;;;;;;;;;;;;;;;7.04;75.87;100635.34;114706;1193;138521;-68
2021/10/29 03:41:53;;;;;;;57.10;37.30;;;;;;;7.00;75.75;100636.08;114731;1193;108635;-68
2021/10/29 03:45:01;;;;;;;63.80;40.40;;;;;;;6.97;75.89;100633.50;114653;1193;138089;-68
2021/10/29 03:47:54;;;;;;;62.00;40.30;;;;;;;6.94;75.73;100632.33;114726;1193;96678;-68
2021/10/29 03:50:46;;;;;;;58.10;37.30;;;;;;;6.90;75.94;100628.77;114584;1193;138767;-68
2021/10/29 03:54:24;;;;;;;57.50;37.80;;;;;;;6.88;75.93;100631.02;114780;1193;111124;-68
2021/10/29 03:59:45;;;;;;;57.50;36.80;;;;;;;6.83;75.70;100629.70;113277;1193;108591;-69
2021/10/29 04:02:32;;;;;;;53.50;35.00;;;;;;;6.82;75.76;100624.85;113184;1194;138456;-68
2021/10/29 04:05:20;;;;;;;;;;;;;;;6.81;75.87;100625.89;114826;1193;95757;-68
2021/10/29 04:08:06;;;;;;;54.90;36.70;;;;;;;6.78;75.93;100621.27;113987;1186;123878;-69
2021/10/29 04:10:56;;;;;;;56.40;36.70;;;;;;;6.76;75.88;100621.46;114827;1193;108573;-69
2021/10/29 04:13:44;;;;;;;52.90;36.90;;;;;;;6.74;75.91;100613.20;114768;1193;107632;-69
2021/10/29 04:16:33;;;;;;;;;;;;;;;6.74;75.87;100613.02;114771;1193;95731;-69
2021/10/29 04:19:20;;;;;;;56.00;36.30;;;;;;;6.71;75.88;100612.89;113823;1193;97525;-69
2021/10/29 04:22:06;;;;;;;58.40;37.40;;;;;;;6.69;75.93;100609.81;113253;1193;138426;-67
2021/10/29 04:24:53;;;;;;;57.90;39.20;;;;;;;6.67;75.79;100606.55;113445;1193;108716;-67
2021/10/29 04:27:45;;;;;;;56.60;37.40;;;;;;;6.64;75.92;100606.90;113152;1193;138080;-68
2021/10/29 04:30:32;;;;;;;62.40;38.10;;;;;;;6.62;75.83;100609.51;113265;1193;97518;-68
2021/10/29 04:33:19;;;;;;;56.90;37.00;;;;;;;6.59;75.84;100605.74;113103;1194;138027;-68
2021/10/29 04:36:06;;;;;;;65.30;39.30;;;;;;;6.57;76.07;100604.90;113314;1193;112318;-68
2021/10/29 04:38:53;;;;;;;53.60;36.00;;;;;;;6.53;75.86;100598.90;113194;1187;138327;-68
2021/10/29 04:41:46;;;;;;;54.30;36.60;;;;;;;6.48;76.21;100599.48;113270;1193;108601;-68
2021/10/29 04:44:33;;;;;;;61.00;39.00;;;;;;;6.44;76.14;100598.80;114599;1193;138516;-68
2021/10/29 04:47:19;;;;;;;59.60;38.10;;;;;;;6.41;76.18;100599.36;114774;1193;95867;-68
2021/10/29 04:50:06;;;;;;;55.60;35.90;;;;;;;6.38;76.21;100600.26;114736;1193;111144;-68
2021/10/29 04:52:53;;;;;;;54.00;36.90;;;;;;;6.36;76.26;100596.81;114675;1193;137829;-68
2021/10/29 04:55:40;;;;;;;57.40;39.10;;;;;;;6.35;76.45;100601.32;114752;1193;108743;-68
2021/10/29 04:58:27;;;;;;;56.10;38.80;;;;;;;6.29;76.25;100598.79;114616;1193;138972;-68
2021/10/29 05:01:14;;;;;;;52.90;36.50;;;;;;;6.26;76.65;100597.77;114712;1193;95992;-68
2021/10/29 05:04:00;;;;;;;57.70;39.10;;;;;;;6.22;76.67;100600.39;114644;1193;138473;-68
2021/10/29 05:06:47;;;;;;;61.70;40.10;;;;;;;6.16;76.65;100602.36;114750;1193;108483;-68
2021/10/29 05:09:33;;;;;;;57.50;37.60;;;;;;;6.10;76.87;100599.63;114595;1193;138108;-68
2021/10/29 05:12:21;;;;;;;64.90;39.20;;;;;;;6.05;76.94;100599.50;114737;1193;96054;-68
2021/10/29 05:15:10;;;;;;;63.80;41.10;;;;;;;6.02;77.37;100601.59;114609;1193;139803;-68
2021/10/29 05:17:56;;;;;;;64.40;39.70;;;;;;;5.97;77.41;100602.51;114726;1193;112357;-68
2021/10/29 05:20:43;;;;;;;60.30;39.00;;;;;;;5.92;77.49;100602.02;113727;1193;138745;-68
2021/10/29 05:23:30;;;;;;;60.30;38.90;;;;;;;5.90;77.73;100597.19;113288;1186;108532;-68
2021/10/29 05:26:17;;;;;;;62.60;41.90;;;;;;;5.87;77.83;100601.16;113295;1193;97532;-68
2021/10/29 05:29:04;;;;;;;58.40;39.50;;;;;;;5.83;78.01;100604.64;113151;1193;137906;-68
2021/10/29 05:31:51;;;;;;;65.90;41.00;;;;;;;5.81;78.31;100600.35;113368;1193;112233;-69
2021/10/29 05:34:37;;;;;;;65.10;42.90;;;;;;;5.81;78.32;100604.67;113234;1193;137756;-70
2021/10/29 05:37:24;;;;;;;61.40;38.60;;;;;;;5.81;78.54;100597.41;113339;1193;108481;-69
2021/10/29 05:40:12;;;;;;;62.20;38.70;;;;;;;5.83;78.53;100599.65;113207;1193;138474;-69
2021/10/29 05:43:00;;;;;;;58.90;39.40;;;;;;;5.87;78.28;100594.27;113308;1193;97523;-69
2021/10/29 05:45:47;;;;;;;61.10;39.50;;;;;;;5.92;78.44;100596.15;113217;1193;137915;-68
2021/10/29 05:48:37;;;;;;;57.40;38.80;;;;;;;5.99;78.35;100595.41;113305;1193;107573;-69
2021/10/29 05:51:25;;;;;;;62.90;39.10;;;;;;;6.08;77.93;100594.46;114573;1193;138792;-69
2021/10/29 05:57:21;;;;;;;61.40;38.70;;;;;;;6.30;77.51;100597.73;113184;1193;138101;-69
2021/10/29 06:00:09;;;;;;;61.60;40.40;;;;;;;6.44;77.24;100603.64;113326;1193;112155;-68
2021/10/29 06:03:04;;;;;;;65.70;40.90;;;;;;;6.58;76.86;100601.26;114652;1193;138486;-69
2021/10/29 06:05:52;;;;;;;57.90;37.10;;;;;;;6.74;76.59;100596.27;114682;1193;108431;-69
2021/10/29 06:08:39;;;;;;;57.60;37.70;;;;;;;6.96;76.14;100598.25;114747;1193;96015;-69
2021/10/29 06:11:28;;;;;;;57.40;39.80;;;;;;;7.20;75.36;100599.00;114732;1193;96901;-69
2021/10/29 06:14:16;;;;;;;53.80;37.30;;;;;;;7.47;74.83;100595.52;114761;1193;112251;-69
2021/10/29 06:17:06;;;;;;;52.40;35.30;;;;;;;7.72;74.24;100591.35;114655;1193;138450;-68
2021/10/29 06:19:53;;;;;;;58.60;36.40;;;;;;;8.03;73.44;100594.00;114639;1193;108537;-69
2021/10/29 06:22:44;;;;;;;53.20;35.60;;;;;;;8.36;72.72;100596.73;114572;1193;138158;-69
2021/10/29 06:25:40;;;;;;;52.50;37.30;;;;;;;8.72;71.36;100601.30;114369;1193;96176;-68
2021/10/29 06:28:29;;;;;;;65.60;39.20;;;;;;;9.07;70.23;100602.34;113202;1193;137625;-68
2021/10/29 06:31:17;;;;;;;54.70;35.80;;;;;;;9.45;68.84;100607.61;113302;1193;109874;-68
2021/10/29 06:34:05;;;;;;;55.00;35.30;;;;;;;9.80;67.66;100612.39;113643;1193;138822;-68
2021/10/29 06:36:51;;;;;;;52.50;37.40;;;;;;;10.07;66.58;100621.14;113380;1193;97528;-68
2021/10/29 06:39:38;;;;;;;53.90;37.50;;;;;;;10.16;66.09;100621.77;113163;1193;137961;-69
2021/10/29 06:42:30;;;;;;;54.50;36.40;;;;;;;10.12;65.94;100622.05;113334;1193;112307;-68
2021/10/29 06:59:15;;;;;;;53.50;36.50;;;;;;;9.81;66.17;100629.72;114567;1193;138366;-69
2021/10/29 07:00:53;;;;;;;51.80;35.60;;;;;;;9.91;65.69;100628.29;114769;1193;108617;-68
2021/10/29 07:40:12;;;;;;;42.40;32.10;;;;;;;12.79;57.39;100639.98;113187;1193;137723;-69
2021/10/29 07:43:04;;;;;;;43.50;32.80;;;;;;;12.95;57.03;100634.30;113311;1193;111512;-69
2021/10/29 07:45:51;;;;;;;43.20;34.00;;;;;;;13.39;56.07;100636.39;113227;1193;138120;-68
2021/10/29 07:48:39;;;;;;;45.00;34.10;;;;;;;13.81;54.60;100638.45;113300;1193;108553;-68
2021/10/29 07:51:26;;;;;;;47.00;34.00;;;;;;;13.98;53.65;100632.20;114508;1193;138286;-69
2021/10/29 07:54:12;;;;;;;46.20;33.20;;;;;;;13.92;54.37;100640.48;113596;1193;97525;-68
2021/10/29 07:57:00;;;;;;;46.40;33.60;;;;;;;13.77;54.15;100635.46;114697;1193;112309;-68
2021/10/29 07:59:50;;;;;;;51.10;33.70;;;;;;;13.71;54.56;100633.80;114521;1193;137911;-67
2021/10/29 08:02:36;;;;;;;44.50;33.30;;;;;;;13.84;54.54;100634.30;114592;1193;108800;-68
2021/10/29 08:05:23;;;;;;;43.80;32.50;;;;;;;14.17;54.37;100633.50;114597;1193;139306;-68
2021/10/29 08:08:11;;;;;;;43.70;32.50;;;;;;;14.48;52.88;100637.83;114630;1193;96012;-67
2021/10/29 08:10:58;;;;;;;44.50;32.90;;;;;;;14.62;52.08;100638.14;114597;1193;138283;-67
2021/10/29 08:13:46;;;;;;;42.50;31.50;;;;;;;14.68;51.65;100631.73;114704;1193;108614;-69
2021/10/29 08:16:32;;;;;;;45.20;33.00;;;;;;;14.85;52.03;100633.80;114544;1193;138998;-67
2021/10/29 08:19:33;;;;;;;41.80;30.20;;;;;;;15.08;51.76;100632.45;114732;1193;96993;-68
2021/10/29 08:22:20;;;;;;;41.30;32.10;;;;;;;15.37;50.61;100629.39;114627;1193;138117;-69
2021/10/29 08:25:09;;;;;;;37.50;28.50;;;;;;;15.60;49.79;100633.05;114740;1193;112210;-68
2021/10/29 08:27:56;;;;;;;40.00;30.30;;;;;;;15.83;50.17;100626.70;114567;1193;138107;-68
2021/10/29 08:31:02;;;;;;;43.30;30.70;;;;;;;16.33;49.38;100626.77;114658;1193;108937;-68
2021/10/29 08:33:49;;;;;;;37.40;29.90;;;;;;;16.67;47.85;100622.21;114609;1193;138681;-68
2021/10/29 08:36:39;;;;;;;40.70;29.50;;;;;;;16.92;47.65;100613.39;114732;1193;96592;-67
2021/10/29 08:39:27;;;;;;;33.00;26.80;;;;;;;17.16;47.79;100611.21;114559;1193;138183;-68
2021/10/29 08:42:14;;;;;;;37.20;28.70;;;;;;;17.32;46.68;100621.95;114727;1193;108426;-68
2021/10/29 08:45:04;;;;;;;39.70;28.30;;;;;;;17.43;45.62;100619.60;114685;1193;108734;-68
2021/10/29 08:47:51;;;;;;;42.40;29.80;;;;;;;17.57;45.98;100611.77;114544;1193;138408;-68
2021/10/29 08:50:38;;;;;;;40.00;29.00;;;;;;;17.70;45.43;100609.67;114763;1193;95706;-68
2021/10/29 08:53:24;;;;;;;36.30;28.40;;;;;;;17.86;45.59;100610.89;114549;1193;137866;-68
2021/10/29 08:56:12;;;;;;;38.80;30.20;;;;;;;18.01;45.32;100606.84;113811;1193;107716;-67
2021/10/29 08:59:23;;;;;;;35.40;27.70;;;;;;;18.18;45.35;100609.80;114450;1193;138377;-67
2021/10/29 09:05:11;;;;;;;33.10;27.40;;;;;;;18.70;45.10;100602.14;114618;1193;138176;-67
2021/10/29 09:08:06;;;;;;;34.10;25.20;;;;;;;18.76;44.48;100607.94;114706;1186;112759;-68
2021/10/29 09:17:31;;;;;;;33.10;25.10;;;;;;;19.36;44.91;100600.54;114533;1193;139636;-68
2021/10/29 09:32:48;;;;;;;35.80;26.30;;;;;;;18.99;42.22;100602.31;114597;1193;95694;-69
2021/10/29 09:35:38;;;;;;;35.00;26.20;;;;;;;18.91;42.76;100603.30;114557;1193;138652;-68
2021/10/29 09:38:25;;;;;;;33.80;26.00;;;;;;;18.93;43.21;100602.33;114686;1193;112318;-68
2021/10/29 09:41:11;;;;;;;33.50;25.70;;;;;;;19.11;43.68;100606.48;114601;1194;138020;-69
2021/10/29 09:44:17;;;;;;;36.60;25.60;;;;;;;19.23;43.13;100601.52;114674;1194;107613;-68
2021/10/29 09:47:04;;;;;;;34.10;25.00;;;;;;;19.46;43.25;100606.59;114648;1193;138453;-68
2021/10/29 09:50:07;;;;;;;39.80;25.60;;;;;;;19.69;42.79;100606.39;114744;1193;95864;-67
2021/10/29 09:53:34;;;;;;;37.30;25.90;;;;;;;19.67;41.26;100608.10;114628;1193;138819;-68
2021/10/29 09:56:32;;;;;;;30.70;24.20;;;;;;;19.44;41.43;100603.92;113773;1193;108540;-68
2021/10/29 09:59:20;;;;;;;35.50;24.90;;;;;;;19.25;42.00;100604.23;114610;1193;137047;-68
2021/10/29 10:02:08;;;;;;;34.20;25.80;;;;;;;19.10;41.92;100604.83;114705;1193;95897;-67
2021/10/29 10:04:57;;;;;;;28.70;21.80;;;;;;;18.96;41.70;100604.92;114598;1193;137767;-67
2021/10/29 10:07:46;;;;;;;31.00;24.30;;;;;;;18.80;42.35;100594.84;114783;1193;111204;-69
2021/10/29 10:10:33;;;;;;;35.70;23.70;;;;;;;18.73;42.56;100593.36;114665;1193;137914;-67
2021/10/29 10:13:21;;;;;;;34.70;26.20;;;;;;;18.71;42.83;100589.74;114744;1193;107755;-67
2021/10/29 10:16:09;;;;;;;34.10;26.10;;;;;;;18.94;42.80;100589.41;114628;1193;139194;-67
2021/10/29 10:18:56;;;;;;;39.30;26.00;;;;;;;19.03;42.47;100593.27;114758;1193;95723;-67
2021/10/29 10:21:44;;;;;;;39.40;26.30;;;;;;;19.01;42.51;100591.75;114630;1193;138382;-67
2021/10/29 10:24:33;;;;;;;38.70;27.00;;;;;;;19.11;42.75;100586.58;114736;1193;108944;-67
2021/10/29 10:30:26;;;;;;;35.40;26.30;;;;;;;19.19;42.64;100587.30;114621;1186;138330;-67
2021/10/29 10:43:06;;;;;;;33.40;26.70;;;;;;;18.35;42.60;100570.55;114708;1193;108491;-67
2021/10/29 10:49:02;;;;;;;43.30;27.40;;;;;;;18.00;43.55;100570.86;114616;1193;137689;-67
2021/10/29 10:52:08;;;;;;;39.10;26.90;;;;;;;17.96;43.82;100573.40;114584;1193;111220;-67
2021/10/29 10:55:07;;;;;;;40.30;27.70;;;;;;;18.00;43.94;100568.08;113182;1193;137829;-67
2021/10/29 10:58:17;;;;;;;40.10;28.20;;;;;;;18.02;44.14;100567.80;114731;1193;108462;-68
2021/10/29 11:01:16;;;;;;;35.90;28.30;;;;;;;17.96;43.80;100563.36;114635;1193;137963;-67
2021/10/29 11:10:11;;;;;;;41.20;28.60;;;;;;;17.70;44.48;100559.08;114716;1193;108629;-68
2021/10/29 11:13:01;;;;;;;;;;;;;;;17.78;44.42;100563.66;114227;1193;137325;-67
2021/10/29 11:16:05;;;;;;;37.70;28.50;;;;;;;17.64;44.55;100555.15;114752;1193;96362;-68
2021/10/29 11:19:04;;;;;;;42.10;29.80;;;;;;;17.56;44.50;100553.82;114622;1193;139365;-68
2021/10/29 11:21:54;;;;;;;40.80;30.00;;;;;;;17.40;44.51;100550.33;114778;1193;112130;-67
2021/10/29 11:24:41;;;;;;;40.80;29.40;;;;;;;17.18;44.44;100550.69;114687;1193;137985;-67
2021/10/29 11:27:28;;;;;;;39.20;28.40;;;;;;;16.96;44.94;100550.30;114664;1193;108537;-67
2021/10/29 11:30:15;;;;;;;39.10;28.60;;;;;;;16.70;44.94;100549.17;113174;1193;138512;-67
2021/10/29 11:33:05;;;;;;;42.60;29.70;;;;;;;16.46;45.49;100547.46;113319;1193;97937;-66
2021/10/29 11:36:10;;;;;;;40.80;30.50;;;;;;;16.29;45.93;100553.06;113173;1194;138359;-67
2021/10/29 11:38:59;;;;;;;43.80;29.40;;;;;;;16.14;46.25;100546.11;113230;1195;109093;-67
2021/10/29 11:41:47;;;;;;;44.40;28.90;;;;;;;16.04;46.82;100538.23;114497;1193;137916;-68
2021/10/29 11:44:39;;;;;;;37.80;28.30;;;;;;;16.00;47.02;100531.37;114613;1193;96215;-68
2021/10/29 11:47:27;;;;;;;42.80;29.00;;;;;;;15.96;47.17;100528.91;114494;1193;137999;-68
2021/10/29 11:50:13;;;;;;;43.90;28.70;;;;;;;15.91;47.19;100524.98;114560;1193;112145;-68
2021/10/29 11:53:00;;;;;;;42.90;30.30;;;;;;;15.86;47.43;100518.91;114251;1193;138153;-68
2021/10/29 11:55:52;;;;;;;38.60;27.10;;;;;;;15.89;47.63;100510.88;114547;1193;107576;-68
2021/10/29 11:58:55;;;;;;;37.90;27.90;;;;;;;15.98;47.92;100509.70;114496;1193;95871;-69
2021/10/29 12:07:48;;;;;;;41.10;27.40;;;;;;;16.21;47.44;100496.09;112925;1193;137789;-69
2021/10/29 12:10:41;;;;;;;37.30;26.60;;;;;;;16.26;47.46;100492.69;113159;1194;108570;-69
2021/10/29 12:13:29;;;;;;;36.20;26.50;;;;;;;16.28;47.00;100494.34;113181;1194;138015;-69
2021/10/29 12:16:22;;;;;;;37.20;25.80;;;;;;;16.21;46.86;100490.66;114741;1193;95905;-70
2021/10/29 12:19:09;;;;;;;39.60;26.50;;;;;;;16.22;47.37;100486.40;114602;1193;138569;-70
2021/10/29 12:22:10;;;;;;;38.80;26.10;;;;;;;16.27;47.22;100485.40;114517;1194;108406;-70
2021/10/29 12:25:26;;;;;;;35.00;24.60;;;;;;;16.27;47.33;100485.21;114515;1193;139655;-70
2021/10/29 12:28:16;;;;;;;37.70;26.20;;;;;;;16.23;47.09;100480.05;114639;1193;96979;-71
2021/10/29 13:04:18;;;;;;;33.10;23.20;;;;;;;16.20;48.66;100451.05;113215;1194;112630;-72
2021/10/29 13:07:07;;;;;;;32.40;23.30;;;;;;;16.24;48.24;100459.45;112878;1195;138188;-70
2021/10/29 13:10:09;;;;;;;34.30;24.40;;;;;;;16.19;48.38;100450.23;113181;1193;108547;-70
2021/10/29 13:13:09;;;;;;;31.30;22.90;;;;;;;16.15;48.71;100446.92;114040;1193;138760;-70
2021/10/29 13:16:05;;;;;;;31.10;22.30;;;;;;;16.20;48.90;100445.45;113333;1178;97529;-70
2021/10/29 13:22:45;;;;;;;28.70;21.20;;;;;;;16.19;49.05;100447.80;113135;1193;110632;-70
2021/10/29 13:53:02;;;;;;;25.10;18.80;;;;;;;15.48;49.80;100431.58;113040;1193;108603;-72
2021/10/29 14:01:51;;;;;;;24.70;17.90;;;;;;;15.25;50.17;100438.44;113181;1194;137882;-71
2021/10/29 14:29:23;;;;;;;20.70;15.70;;;;;;;14.50;50.70;100429.38;113389;1193;97516;-69
2021/10/29 14:32:30;;;;;;;22.40;15.80;;;;;;;14.42;50.87;100427.99;114555;1193;137603;-69
2021/10/29 14:44:14;;;;;;;22.20;14.90;;;;;;;14.15;50.77;100420.59;114525;1193;137906;-69
2021/10/29 14:47:12;;;;;;;23.20;15.10;;;;;;;14.08;50.82;100419.33;113861;1193;97535;-68
2021/10/29 15:05:47;;;;;;;24.80;15.90;;;;;;;13.50;51.45;100409.98;113036;1194;112219;-70
2021/10/29 15:15:22;;;;;;;27.70;18.10;;;;;;;13.22;51.98;100414.08;113180;1193;137874;-70
2021/10/29 15:42:43;;;;;;;24.70;16.70;;;;;;;12.61;52.54;100403.66;113332;1193;107593;-69
2021/10/29 15:45:37;;;;;;;28.20;17.30;;;;;;;12.58;52.69;100408.34;113251;1193;137787;-70
2021/10/29 15:48:26;;;;;;;25.30;16.30;;;;;;;12.54;52.74;100408.11;113433;1193;97591;-70
2021/10/29 15:51:13;;;;;;;26.70;15.70;;;;;;;12.52;52.81;100404.20;113241;1193;138080;-70
2021/10/29 15:54:04;;;;;;;23.50;16.70;;;;;;;12.49;52.88;100407.09;113488;1193;108616;-70
2021/10/29 15:56:58;;;;;;;23.90;16.70;;;;;;;12.47;52.90;100407.02;114605;1193;138128;-68
2021/10/29 15:59:53;;;;;;;25.70;16.80;;;;;;;12.45;52.91;100403.09;114648;1193;96784;-68
2021/10/29 16:02:50;;;;;;;24.30;15.40;;;;;;;12.43;52.84;100402.27;114410;1193;138944;-69
2021/10/29 16:18:02;;;;;;;25.10;15.30;;;;;;;12.34;52.77;100392.84;113398;1193;97506;-69
2021/10/29 16:20:49;;;;;;;21.70;15.20;;;;;;;12.31;52.74;100400.96;114639;1193;138632;-68
2021/10/29 16:23:36;;;;;;;25.50;15.40;;;;;;;12.27;52.73;100391.35;113494;1193;108772;-69
2021/10/29 16:26:24;;;;;;;26.20;15.50;;;;;;;12.24;52.68;100395.33;113277;1193;138052;-70
2021/10/29 16:29:13;;;;;;;22.40;15.40;;;;;;;12.23;52.67;100396.41;113353;1194;97483;-70
2021/10/29 16:32:11;;;;;;;25.00;14.60;;;;;;;12.21;52.60;100393.15;114444;1193;139446;-70
2021/10/29 16:34:58;;;;;;;23.70;15.20;;;;;;;12.20;52.58;100393.70;113412;1180;112448;-70
2021/10/29 16:37:46;;;;;;;26.20;15.40;;;;;;;12.20;52.67;100396.15;113133;1193;138505;-69
2021/10/29 16:40:34;;;;;;;22.50;15.90;;;;;;;12.19;52.65;100393.04;113408;1193;107994;-68
2021/10/29 16:43:22;;;;;;;24.40;15.30;;;;;;;12.17;52.65;100394.87;114579;1193;139652;-69
2021/10/29 16:46:09;;;;;;;28.90;16.60;;;;;;;12.15;52.62;100392.84;113961;1193;97496;-69
2021/10/29 16:48:57;;;;;;;25.10;15.70;;;;;;;12.12;52.71;100391.55;114664;1193;112141;-69
2021/10/29 16:51:44;;;;;;;23.90;15.50;;;;;;;12.10;52.68;100391.28;114420;1195;138562;-69
2021/10/29 16:54:30;;;;;;;23.10;16.10;;;;;;;12.09;52.82;100397.05;114635;1193;107561;-69
2021/10/29 16:57:17;;;;;;;24.80;16.00;;;;;;;12.08;52.85;100396.06;114612;1193;138167;-68
2021/10/29 17:00:07;;;;;;;27.30;15.40;;;;;;;12.06;52.90;100392.30;114706;1193;96541;-67
2021/10/29 17:02:54;;;;;;;24.40;15.90;;;;;;;12.05;52.96;100394.09;114549;1193;137888;-67
2021/10/29 17:05:42;;;;;;;;;;;;;;;12.04;53.00;100395.68;114698;1193;108464;-67
2021/10/29 17:08:29;;;;;;;27.70;15.70;;;;;;;12.03;53.04;100392.24;114598;1193;124833;-68
2021/10/29 17:11:16;;;;;;;23.00;16.50;;;;;;;12.01;53.08;100389.30;114686;1187;95953;-68